createdAt,value
2017-04-09T00:00:17.584Z,0
2017-04-09T00:01:17.625Z,0
2017-04-09T00:02:17.642Z,0
2017-04-09T00:03:17.667Z,0
2017-04-09T00:04:17.715Z,0
2017-04-09T00:05:17.745Z,0
2017-04-09T00:06:17.755Z,0
2017-04-09T00:07:17.813Z,0
2017-04-09T00:08:17.849Z,0
2017-04-09T00:09:17.865Z,0
2017-04-09T00:10:17.901Z,0
2017-04-09T00:11:17.929Z,0
2017-04-09T00:12:17.954Z,0
2017-04-09T00:13:17.987Z,0
2017-04-09T00:14:18.004Z,0
2017-04-09T00:15:18.016Z,0
2017-04-09T00:16:18.063Z,0
2017-04-09T00:17:18.111Z,0
2017-04-09T00:18:18.125Z,0
2017-04-09T00:19:18.152Z,0
2017-04-09T00:20:18.187Z,0
2017-04-09T00:21:18.239Z,0
2017-04-09T00:22:18.260Z,0
2017-04-09T00:23:18.278Z,0
2017-04-09T00:24:18.292Z,0
2017-04-09T00:25:18.348Z,0
2017-04-09T00:26:18.374Z,0
2017-04-09T00:27:18.406Z,0
2017-04-09T00:28:18.442Z,0
2017-04-09T00:29:18.460Z,0
2017-04-09T00:30:18.500Z,0
2017-04-09T00:31:18.529Z,0
2017-04-09T00:32:18.552Z,0
2017-04-09T00:33:18.598Z,0
2017-04-09T00:34:18.628Z,0
2017-04-09T00:35:18.658Z,0
2017-04-09T00:36:18.674Z,0
2017-04-09T00:37:18.698Z,0
2017-04-09T00:38:18.747Z,0
2017-04-09T00:39:18.767Z,0
2017-04-09T00:40:18.797Z,0
2017-04-09T00:41:18.827Z,0
2017-04-09T00:42:18.861Z,0
2017-04-09T00:43:18.891Z,0
2017-04-09T00:44:18.891Z,0
2017-04-09T00:45:18.956Z,0
2017-04-09T00:46:18.987Z,0
2017-04-09T00:47:19.004Z,0
2017-04-09T00:48:19.025Z,0
2017-04-09T00:49:19.073Z,0
2017-04-09T00:50:19.115Z,0
2017-04-09T00:51:19.132Z,0
2017-04-09T00:52:19.168Z,0
2017-04-09T00:53:19.205Z,0
2017-04-09T00:54:19.224Z,0
2017-04-09T00:55:19.264Z,0
2017-04-09T00:56:19.281Z,0
2017-04-09T00:57:19.317Z,0
2017-04-09T00:58:19.351Z,0
2017-04-09T00:59:19.365Z,0
2017-04-09T01:00:19.417Z,0
2017-04-09T01:01:19.440Z,0
2017-04-09T01:02:19.472Z,0
2017-04-09T01:03:19.485Z,0
2017-04-09T01:04:19.517Z,0
2017-04-09T01:05:19.551Z,0
2017-04-09T01:06:19.571Z,0
2017-04-09T01:07:19.627Z,0
2017-04-09T01:08:19.663Z,0
2017-04-09T01:09:19.653Z,0
2017-04-09T01:10:19.691Z,0
2017-04-09T01:11:19.744Z,0
2017-04-09T01:12:19.759Z,0
2017-04-09T01:13:19.824Z,0
2017-04-09T01:14:19.830Z,0
2017-04-09T01:15:19.878Z,0
2017-04-09T01:16:19.904Z,0
2017-04-09T01:17:19.931Z,0
2017-04-09T01:18:19.970Z,0
2017-04-09T01:19:19.984Z,0
2017-04-09T01:20:20.017Z,0
2017-04-09T01:21:20.047Z,0
2017-04-09T01:22:20.078Z,0
2017-04-09T01:23:20.114Z,0
2017-04-09T01:24:20.141Z,0
2017-04-09T01:25:20.170Z,0
2017-04-09T01:26:20.203Z,0
2017-04-09T01:27:20.219Z,0
2017-04-09T01:28:20.261Z,0
2017-04-09T01:29:20.290Z,0
2017-04-09T01:30:20.324Z,0
2017-04-09T01:31:20.307Z,0
2017-04-09T01:32:20.378Z,0
2017-04-09T01:33:20.386Z,0
2017-04-09T01:34:20.453Z,0
2017-04-09T01:35:20.477Z,0
2017-04-09T01:36:20.522Z,0
2017-04-09T01:37:20.527Z,0
2017-04-09T01:38:20.577Z,0
2017-04-09T01:39:20.605Z,0
2017-04-09T01:40:20.611Z,0
2017-04-09T01:41:20.659Z,0
2017-04-09T01:42:20.695Z,0
2017-04-09T01:43:20.716Z,0
2017-04-09T01:44:20.753Z,0
2017-04-09T01:45:20.790Z,0
2017-04-09T01:46:20.816Z,0
2017-04-09T01:47:20.864Z,0
2017-04-09T01:48:20.877Z,0
2017-04-09T01:49:20.915Z,0
2017-04-09T01:50:20.941Z,0
2017-04-09T01:51:20.945Z,0
2017-04-09T01:52:21.003Z,0
2017-04-09T01:53:21.022Z,0
2017-04-09T01:54:21.012Z,0
2017-04-09T01:55:21.091Z,0
2017-04-09T01:56:21.106Z,0
2017-04-09T01:57:21.154Z,0
2017-04-09T01:58:21.157Z,0
2017-04-09T01:59:21.211Z,0
2017-04-09T02:00:21.396Z,0
2017-04-09T02:01:21.268Z,0
2017-04-09T02:02:21.317Z,0
2017-04-09T02:03:21.330Z,0
2017-04-09T02:04:21.350Z,0
2017-04-09T02:05:21.555Z,0
2017-04-09T02:06:21.432Z,0
2017-04-09T02:07:21.452Z,0
2017-04-09T02:08:21.485Z,0
2017-04-09T02:09:21.537Z,0
2017-04-09T02:10:21.701Z,0
2017-04-09T02:11:21.568Z,0
2017-04-09T02:12:21.625Z,0
2017-04-09T02:13:21.635Z,0
2017-04-09T02:14:21.652Z,0
2017-04-09T02:15:21.989Z,0
2017-04-09T02:16:21.716Z,0
2017-04-09T02:17:21.741Z,0
2017-04-09T02:18:21.800Z,0
2017-04-09T02:19:21.824Z,0
2017-04-09T02:20:21.850Z,0
2017-04-09T02:21:21.895Z,0
2017-04-09T02:22:21.918Z,0
2017-04-09T02:23:40.762Z,0
2017-04-09T02:24:40.829Z,0
2017-04-09T02:25:40.842Z,0
2017-04-09T02:26:40.897Z,0
2017-04-09T02:27:40.917Z,0
2017-04-09T02:28:40.947Z,0
2017-04-09T02:29:40.995Z,0
2017-04-09T02:30:41.115Z,0
2017-04-09T02:31:41.047Z,0
2017-04-09T02:32:41.068Z,0
2017-04-09T02:33:41.084Z,0
2017-04-09T02:34:41.147Z,0
2017-04-09T02:35:41.320Z,0
2017-04-09T02:36:41.189Z,0
2017-04-09T02:37:41.236Z,0
2017-04-09T02:38:41.276Z,0
2017-04-09T02:39:41.291Z,0
2017-04-09T02:40:41.656Z,0
2017-04-09T02:41:41.350Z,0
2017-04-09T02:42:41.384Z,0
2017-04-09T02:43:41.415Z,0
2017-04-09T02:44:41.440Z,0
2017-04-09T02:45:41.470Z,0
2017-04-09T02:46:41.525Z,0
2017-04-09T02:47:41.537Z,0
2017-04-09T02:48:41.583Z,0
2017-04-09T02:49:41.596Z,0
2017-04-09T02:50:41.620Z,0
2017-04-09T02:51:41.652Z,0
2017-04-09T02:52:41.690Z,0
2017-04-09T02:53:41.691Z,0
2017-04-09T02:54:41.751Z,0
2017-04-09T02:55:41.754Z,0
2017-04-09T02:56:41.808Z,0
2017-04-09T02:57:41.833Z,0
2017-04-09T02:58:41.859Z,0
2017-04-09T02:59:41.899Z,0
2017-04-09T03:00:41.916Z,0
2017-04-09T03:01:41.939Z,0
2017-04-09T03:02:42.003Z,0
2017-04-09T03:03:42.016Z,0
2017-04-09T03:04:42.034Z,0
2017-04-09T03:05:42.095Z,0
2017-04-09T03:06:42.084Z,0
2017-04-09T03:07:42.156Z,0
2017-04-09T03:08:42.187Z,0
2017-04-09T03:09:42.194Z,0
2017-04-09T03:10:42.237Z,0
2017-04-09T03:11:42.266Z,0
2017-04-09T03:12:42.300Z,0
2017-04-09T03:13:42.345Z,0
2017-04-09T03:14:42.343Z,0
2017-04-09T03:15:42.375Z,0
2017-04-09T03:16:42.525Z,0
2017-04-09T03:17:42.450Z,0
2017-04-09T03:18:42.491Z,0
2017-04-09T03:19:42.514Z,0
2017-04-09T03:20:42.521Z,0
2017-04-09T03:21:42.673Z,0
2017-04-09T03:22:42.602Z,0
2017-04-09T03:23:42.650Z,0
2017-04-09T03:24:42.669Z,0
2017-04-09T03:25:42.682Z,0
2017-04-09T03:26:42.834Z,0
2017-04-09T03:27:42.736Z,0
2017-04-09T03:28:42.798Z,0
2017-04-09T03:29:42.799Z,0
2017-04-09T03:30:42.832Z,0
2017-04-09T03:31:42.965Z,0
2017-04-09T03:32:42.919Z,0
2017-04-09T03:33:42.970Z,0
2017-04-09T03:34:42.970Z,0
2017-04-09T03:35:43.001Z,0
2017-04-09T03:36:43.040Z,0
2017-04-09T03:37:43.075Z,0
2017-04-09T03:38:43.097Z,0
2017-04-09T03:39:43.123Z,0
2017-04-09T03:40:43.139Z,0
2017-04-09T03:41:43.187Z,0
2017-04-09T03:42:43.217Z,0
2017-04-09T03:43:43.236Z,0
2017-04-09T03:44:43.266Z,0
2017-04-09T03:45:43.318Z,0
2017-04-09T03:46:43.328Z,0
2017-04-09T03:47:43.352Z,0
2017-04-09T03:48:43.397Z,0
2017-04-09T03:49:43.442Z,0
2017-04-09T03:50:43.434Z,0
2017-04-09T03:51:43.476Z,0
2017-04-09T03:52:43.499Z,0
2017-04-09T03:53:43.553Z,0
2017-04-09T03:54:43.568Z,0
2017-04-09T03:55:43.598Z,0
2017-04-09T03:56:43.635Z,0
2017-04-09T03:57:43.636Z,0
2017-04-09T03:58:43.728Z,0
2017-04-09T03:59:43.743Z,0
2017-04-09T04:00:43.985Z,0
2017-04-09T04:01:43.799Z,4
2017-04-09T04:02:43.826Z,4
2017-04-09T04:03:43.839Z,0
2017-04-09T04:04:43.865Z,4
2017-04-09T04:05:43.918Z,4
2017-04-09T04:06:43.959Z,4
2017-04-09T04:07:43.966Z,8
2017-04-09T04:08:44.018Z,4
2017-04-09T04:09:44.041Z,8
2017-04-09T04:10:44.068Z,8
2017-04-09T04:11:44.085Z,8
2017-04-09T04:12:44.133Z,12
2017-04-09T04:13:44.145Z,12
2017-04-09T04:14:44.187Z,16
2017-04-09T04:15:44.197Z,20
2017-04-09T04:16:44.234Z,20
2017-04-09T04:17:44.284Z,24
2017-04-09T04:18:44.297Z,24
2017-04-09T04:19:44.354Z,32
2017-04-09T04:20:44.373Z,32
2017-04-09T04:21:44.403Z,36
2017-04-09T04:22:44.441Z,40
2017-04-09T04:23:44.450Z,40
2017-04-09T04:24:44.509Z,44
2017-04-09T04:25:44.524Z,48
2017-04-09T04:26:44.591Z,52
2017-04-09T04:27:44.565Z,60
2017-04-09T04:28:44.619Z,64
2017-04-09T04:29:44.655Z,68
2017-04-09T04:30:44.654Z,72
2017-04-09T04:31:44.693Z,80
2017-04-09T04:32:44.740Z,80
2017-04-09T04:33:44.771Z,88
2017-04-09T04:34:44.799Z,92
2017-04-09T04:35:44.904Z,100
2017-04-09T04:36:44.838Z,108
2017-04-09T04:37:44.897Z,116
2017-04-09T04:38:44.923Z,124
2017-04-09T04:39:44.953Z,132
2017-04-09T04:40:44.983Z,140
2017-04-09T04:41:45.017Z,148
2017-04-09T04:42:45.052Z,160
2017-04-09T04:43:45.096Z,172
2017-04-09T04:44:45.080Z,176
2017-04-09T04:45:45.146Z,184
2017-04-09T04:46:45.148Z,192
2017-04-09T04:47:45.209Z,204
2017-04-09T04:48:45.236Z,208
2017-04-09T04:49:45.279Z,220
2017-04-09T04:50:45.286Z,240
2017-04-09T04:51:45.317Z,252
2017-04-09T04:52:45.369Z,264
2017-04-09T04:53:45.373Z,272
2017-04-09T04:54:45.401Z,280
2017-04-09T04:55:45.449Z,280
2017-04-09T04:56:45.461Z,288
2017-04-09T04:57:45.505Z,300
2017-04-09T04:58:45.497Z,312
2017-04-09T04:59:45.548Z,328
2017-04-09T05:00:45.609Z,340
2017-04-09T05:01:45.622Z,348
2017-04-09T05:02:45.636Z,356
2017-04-09T05:03:45.685Z,360
2017-04-09T05:04:45.697Z,376
2017-04-09T05:05:45.751Z,380
2017-04-09T05:06:45.767Z,384
2017-04-09T05:07:45.786Z,388
2017-04-09T05:08:45.842Z,400
2017-04-09T05:09:45.874Z,424
2017-04-09T05:10:45.910Z,444
2017-04-09T05:11:45.917Z,468
2017-04-09T05:12:45.956Z,488
2017-04-09T05:13:46.004Z,496
2017-04-09T05:14:46.007Z,516
2017-04-09T05:15:46.053Z,536
2017-04-09T05:16:46.134Z,552
2017-04-09T05:17:46.095Z,552
2017-04-09T05:18:46.143Z,564
2017-04-09T05:19:46.204Z,580
2017-04-09T05:20:46.195Z,600
2017-04-09T05:21:46.236Z,624
2017-04-09T05:22:46.259Z,644
2017-04-09T05:23:46.298Z,696
2017-04-09T05:24:46.316Z,748
2017-04-09T05:25:46.348Z,804
2017-04-09T05:26:46.390Z,828
2017-04-09T05:27:46.420Z,860
2017-04-09T05:28:46.441Z,896
2017-04-09T05:29:46.487Z,936
2017-04-09T05:30:46.497Z,996
2017-04-09T05:31:46.527Z,1048
2017-04-09T05:32:46.547Z,1068
2017-04-09T05:33:46.615Z,1100
2017-04-09T05:34:46.634Z,1120
2017-04-09T05:35:46.657Z,1164
2017-04-09T05:36:46.678Z,1192
2017-04-09T05:37:46.742Z,1176
2017-04-09T05:38:46.749Z,1196
2017-04-09T05:39:46.799Z,1232
2017-04-09T05:40:46.908Z,1296
2017-04-09T05:41:46.807Z,1356
2017-04-09T05:42:46.920Z,1372
2017-04-09T05:43:46.906Z,1396
2017-04-09T05:44:46.954Z,1392
2017-04-09T05:45:47.015Z,1376
2017-04-09T05:46:46.978Z,1408
2017-04-09T05:47:47.052Z,1436
2017-04-09T05:48:47.039Z,1480
2017-04-09T05:49:47.131Z,1496
2017-04-09T05:50:47.119Z,1524
2017-04-09T05:51:47.140Z,1536
2017-04-09T05:52:47.195Z,1524
2017-04-09T05:53:47.198Z,1544
2017-04-09T05:54:47.261Z,1568
2017-04-09T05:55:47.305Z,1592
2017-04-09T05:56:47.336Z,1656
2017-04-09T05:57:47.331Z,1728
2017-04-09T05:58:47.445Z,1752
2017-04-09T05:59:47.426Z,1780
2017-04-09T06:00:47.428Z,1800
2017-04-09T06:01:47.475Z,1832
2017-04-09T06:02:47.500Z,1884
2017-04-09T06:03:47.523Z,1976
2017-04-09T06:04:47.630Z,2072
2017-04-09T06:05:47.600Z,2124
2017-04-09T06:06:47.625Z,2220
2017-04-09T06:07:47.618Z,2344
2017-04-09T06:08:47.707Z,2436
2017-04-09T06:09:47.723Z,2532
2017-04-09T06:10:47.743Z,2708
2017-04-09T06:11:47.789Z,2848
2017-04-09T06:12:47.821Z,2932
2017-04-09T06:13:47.853Z,3016
2017-04-09T06:14:47.855Z,3064
2017-04-09T06:15:47.913Z,3104
2017-04-09T06:16:47.969Z,3172
2017-04-09T06:17:47.985Z,3292
2017-04-09T06:18:48.016Z,3388
2017-04-09T06:19:48.026Z,3496
2017-04-09T06:20:48.078Z,3648
2017-04-09T06:21:48.115Z,3796
2017-04-09T06:22:48.118Z,3988
2017-04-09T06:23:48.138Z,4124
2017-04-09T06:24:48.187Z,4232
2017-04-09T06:25:48.226Z,4444
2017-04-09T06:26:48.264Z,4584
2017-04-09T06:27:48.294Z,4852
2017-04-09T06:28:48.318Z,5008
2017-04-09T06:29:48.361Z,5032
2017-04-09T06:30:48.398Z,5036
2017-04-09T06:31:48.415Z,5192
2017-04-09T06:32:48.440Z,5280
2017-04-09T06:33:48.466Z,5332
2017-04-09T06:34:48.518Z,5348
2017-04-09T06:35:48.527Z,5416
2017-04-09T06:36:48.558Z,5576
2017-04-09T06:37:48.621Z,5736
2017-04-09T06:38:48.641Z,5696
2017-04-09T06:39:48.677Z,5576
2017-04-09T06:40:48.772Z,5704
2017-04-09T06:41:48.719Z,5860
2017-04-09T06:42:48.759Z,5880
2017-04-09T06:43:48.792Z,5992
2017-04-09T06:44:48.874Z,6148
2017-04-09T06:45:48.878Z,6088
2017-04-09T06:46:48.929Z,6296
2017-04-09T06:47:48.938Z,6368
2017-04-09T06:48:48.968Z,6392
2017-04-09T06:49:49.028Z,6412
2017-04-09T06:50:49.036Z,6472
2017-04-09T06:51:49.068Z,6548
2017-04-09T06:52:49.110Z,6676
2017-04-09T06:53:49.129Z,6980
2017-04-09T06:54:49.169Z,7180
2017-04-09T06:55:49.208Z,7208
2017-04-09T06:56:49.238Z,7292
2017-04-09T06:57:49.294Z,7428
2017-04-09T06:58:49.317Z,7596
2017-04-09T06:59:49.349Z,7576
2017-04-09T07:00:49.358Z,7788
2017-04-09T07:01:49.414Z,10212
2017-04-09T07:02:49.445Z,8148
2017-04-09T07:03:49.470Z,8092
2017-04-09T07:04:49.517Z,8044
2017-04-09T07:05:49.540Z,7744
2017-04-09T07:06:49.557Z,7332
2017-04-09T07:07:49.619Z,7208
2017-04-09T07:08:49.678Z,7000
2017-04-09T07:09:49.686Z,6980
2017-04-09T07:10:49.697Z,6920
2017-04-09T07:11:49.744Z,7004
2017-04-09T07:12:49.782Z,6920
2017-04-09T07:13:49.834Z,6988
2017-04-09T07:14:49.873Z,7084
2017-04-09T07:15:49.871Z,7192
2017-04-09T07:16:49.928Z,7188
2017-04-09T07:17:49.949Z,7284
2017-04-09T07:18:49.981Z,7628
2017-04-09T07:19:50.029Z,7840
2017-04-09T07:20:50.038Z,7788
2017-04-09T07:21:50.141Z,7940
2017-04-09T07:22:50.142Z,8052
2017-04-09T07:23:50.183Z,8000
2017-04-09T07:24:50.187Z,7976
2017-04-09T07:25:50.223Z,8132
2017-04-09T07:26:50.295Z,8456
2017-04-09T07:27:50.320Z,8588
2017-04-09T07:28:50.327Z,8704
2017-04-09T07:29:50.396Z,8892
2017-04-09T07:30:50.381Z,8852
2017-04-09T07:31:50.415Z,8864
2017-04-09T07:32:50.481Z,9036
2017-04-09T07:33:50.475Z,9276
2017-04-09T07:34:50.540Z,9372
2017-04-09T07:35:50.587Z,9368
2017-04-09T07:36:50.630Z,9700
2017-04-09T07:37:50.646Z,9992
2017-04-09T07:38:50.699Z,9572
2017-04-09T07:39:50.736Z,8620
2017-04-09T07:40:50.790Z,7656
2017-04-09T07:41:50.776Z,7536
2017-04-09T07:42:50.847Z,8484
2017-04-09T07:43:50.887Z,10932
2017-04-09T07:44:50.913Z,11636
2017-04-09T07:45:50.994Z,11708
2017-04-09T07:46:50.951Z,11576
2017-04-09T07:47:51.020Z,11672
2017-04-09T07:48:51.084Z,11708
2017-04-09T07:49:51.078Z,11708
2017-04-09T07:50:51.491Z,11668
2017-04-09T07:51:51.146Z,11776
2017-04-09T07:52:51.198Z,11784
2017-04-09T07:53:51.248Z,11800
2017-04-09T07:54:51.283Z,11820
2017-04-09T07:55:51.316Z,11848
2017-04-09T07:56:51.353Z,11884
2017-04-09T07:57:51.404Z,11896
2017-04-09T07:58:51.452Z,12020
2017-04-09T07:59:51.461Z,12068
2017-04-09T08:00:51.570Z,12120
2017-04-09T08:01:51.556Z,12144
2017-04-09T08:02:51.595Z,12208
2017-04-09T08:03:51.710Z,12256
2017-04-09T08:04:51.662Z,12368
2017-04-09T08:05:51.715Z,12408
2017-04-09T08:06:51.766Z,12468
2017-04-09T08:07:51.790Z,12520
2017-04-09T08:08:51.822Z,12592
2017-04-09T08:09:51.894Z,12564
2017-04-09T08:10:52.017Z,12632
2017-04-09T08:11:51.967Z,12652
2017-04-09T08:12:51.998Z,12700
2017-04-09T08:13:52.036Z,12836
2017-04-09T08:14:52.077Z,12772
2017-04-09T08:15:52.129Z,12928
2017-04-09T08:16:52.176Z,11520
2017-04-09T08:17:52.201Z,13088
2017-04-09T08:18:52.271Z,13216
2017-04-09T08:19:52.335Z,13208
2017-04-09T08:20:52.340Z,13192
2017-04-09T08:21:52.412Z,13268
2017-04-09T08:22:52.430Z,13248
2017-04-09T08:23:52.447Z,13312
2017-04-09T08:24:52.534Z,13404
2017-04-09T08:25:52.573Z,13332
2017-04-09T08:26:52.563Z,13360
2017-04-09T08:27:52.672Z,13532
2017-04-09T08:28:52.827Z,13596
2017-04-09T08:29:52.729Z,13620
2017-04-09T08:30:52.797Z,13564
2017-04-09T08:31:52.796Z,13688
2017-04-09T08:32:52.854Z,13656
2017-04-09T08:33:52.901Z,13676
2017-04-09T08:34:52.945Z,13268
2017-04-09T08:35:52.972Z,13908
2017-04-09T08:36:53.037Z,13940
2017-04-09T08:37:53.069Z,14344
2017-04-09T08:38:53.106Z,14420
2017-04-09T08:39:53.178Z,13516
2017-04-09T08:40:53.247Z,10248
2017-04-09T08:41:53.266Z,13372
2017-04-09T08:42:53.306Z,10436
2017-04-09T08:43:53.347Z,14636
2017-04-09T08:44:53.386Z,14128
2017-04-09T08:45:53.684Z,14960
2017-04-09T08:46:53.475Z,15116
2017-04-09T08:47:53.508Z,16128
2017-04-09T08:48:53.566Z,16736
2017-04-09T08:49:53.627Z,16576
2017-04-09T08:50:53.655Z,11280
2017-04-09T08:51:53.739Z,16192
2017-04-09T08:52:53.749Z,16544
2017-04-09T08:53:53.785Z,16800
2017-04-09T08:54:53.839Z,17472
2017-04-09T08:55:53.861Z,17888
2017-04-09T08:56:53.912Z,18656
2017-04-09T08:57:53.960Z,19424
2017-04-09T08:58:53.976Z,20000
2017-04-09T08:59:54.062Z,19488
2017-04-09T09:00:54.108Z,18752
2017-04-09T09:01:54.143Z,16736
2017-04-09T09:02:54.193Z,18816
2017-04-09T09:03:54.245Z,11908
2017-04-09T09:04:54.276Z,18816
2017-04-09T09:05:54.275Z,19360
2017-04-09T09:06:54.376Z,19360
2017-04-09T09:07:54.459Z,19584
2017-04-09T09:08:54.469Z,21056
2017-04-09T09:09:54.552Z,22368
2017-04-09T09:10:54.602Z,23360
2017-04-09T09:11:54.580Z,16960
2017-04-09T09:12:54.652Z,22304
2017-04-09T09:13:54.667Z,24480
2017-04-09T09:14:54.710Z,24704
2017-04-09T09:15:54.764Z,25536
2017-04-09T09:16:54.818Z,26400
2017-04-09T09:17:54.830Z,29376
2017-04-09T09:18:54.914Z,32416
2017-04-09T09:19:54.972Z,22656
2017-04-09T09:20:55.011Z,34272
2017-04-09T09:21:55.061Z,19136
2017-04-09T09:22:55.105Z,21536
2017-04-09T09:23:55.158Z,37152
2017-04-09T09:24:55.174Z,37824
2017-04-09T09:25:55.222Z,37536
2017-04-09T09:26:55.252Z,32480
2017-04-09T09:27:55.313Z,33760
2017-04-09T09:28:55.356Z,38912
2017-04-09T09:29:55.412Z,37440
2017-04-09T09:30:55.468Z,35904
2017-04-09T09:31:55.508Z,35584
2017-04-09T09:32:55.568Z,39328
2017-04-09T09:33:55.586Z,25280
2017-04-09T09:34:55.652Z,17504
2017-04-09T09:35:55.711Z,12804
2017-04-09T09:36:55.752Z,11204
2017-04-09T09:37:55.785Z,18016
2017-04-09T09:38:55.833Z,11292
2017-04-09T09:39:55.893Z,21376
2017-04-09T09:40:55.904Z,27776
2017-04-09T09:41:55.967Z,32800
2017-04-09T09:42:56.012Z,34944
2017-04-09T09:43:56.074Z,33664
2017-04-09T09:44:56.115Z,33344
2017-04-09T09:45:56.187Z,17792
2017-04-09T09:46:56.220Z,29600
2017-04-09T09:47:56.242Z,31456
2017-04-09T09:48:56.302Z,30368
2017-04-09T09:49:56.319Z,29600
2017-04-09T09:50:56.364Z,29152
2017-04-09T09:51:56.435Z,30464
2017-04-09T09:52:56.459Z,33856
2017-04-09T09:53:56.476Z,35904
2017-04-09T09:54:56.549Z,39424
2017-04-09T09:55:56.559Z,41408
2017-04-09T09:56:56.621Z,46112
2017-04-09T09:57:56.672Z,55808
2017-04-09T09:58:56.723Z,65504
2017-04-09T09:59:56.768Z,71520
2017-04-09T10:00:56.851Z,75456
2017-04-09T10:01:56.854Z,70112
2017-04-09T10:02:56.890Z,68544
2017-04-09T10:03:56.955Z,66304
2017-04-09T10:04:57.101Z,57248
2017-04-09T10:05:57.047Z,57056
2017-04-09T10:06:57.120Z,59392
2017-04-09T10:07:57.126Z,59360
2017-04-09T10:08:57.189Z,58400
2017-04-09T10:09:57.219Z,59104
2017-04-09T10:10:57.266Z,59680
2017-04-09T10:11:57.328Z,55936
2017-04-09T10:12:57.390Z,53440
2017-04-09T10:13:57.413Z,52544
2017-04-09T10:14:57.447Z,54880
2017-04-09T10:15:57.479Z,56896
2017-04-09T10:16:57.532Z,60256
2017-04-09T10:17:57.640Z,61120
2017-04-09T10:18:57.625Z,64864
2017-04-09T10:19:57.684Z,69056
2017-04-09T10:20:57.756Z,69152
2017-04-09T10:21:57.808Z,76224
2017-04-09T10:22:57.813Z,79648
2017-04-09T10:23:57.867Z,77152
2017-04-09T10:24:57.906Z,72192
2017-04-09T10:25:57.958Z,67456
2017-04-09T10:26:57.988Z,67680
2017-04-09T10:27:58.017Z,68544
2017-04-09T10:28:58.083Z,67584
2017-04-09T10:29:58.122Z,64288
2017-04-09T10:30:58.168Z,66656
2017-04-09T10:31:58.213Z,64096
2017-04-09T10:32:58.256Z,62176
2017-04-09T10:33:58.274Z,62464
2017-04-09T10:34:58.346Z,60736
2017-04-09T10:35:58.372Z,57184
2017-04-09T10:36:58.411Z,61088
2017-04-09T10:37:58.450Z,63360
2017-04-09T10:38:58.489Z,66880
2017-04-09T10:39:58.537Z,72384
2017-04-09T10:40:58.591Z,70592
2017-04-09T10:41:58.641Z,68992
2017-04-09T10:42:58.686Z,67456
2017-04-09T10:43:58.685Z,68256
2017-04-09T10:44:58.756Z,66848
2017-04-09T10:45:58.794Z,54400
2017-04-09T10:46:58.844Z,28192
2017-04-09T10:47:58.886Z,16640
2017-04-09T10:48:58.901Z,12848
2017-04-09T10:49:58.978Z,12580
2017-04-09T10:50:59.012Z,12044
2017-04-09T10:51:59.037Z,11340
2017-04-09T10:52:59.094Z,10708
2017-04-09T10:53:59.130Z,10452
2017-04-09T10:54:59.161Z,10336
2017-04-09T10:55:59.190Z,10300
2017-04-09T10:56:59.272Z,10064
2017-04-09T10:57:59.262Z,9920
2017-04-09T10:58:59.360Z,9868
2017-04-09T10:59:59.372Z,10004
2017-04-09T11:00:59.402Z,9852
2017-04-09T11:01:59.455Z,9600
2017-04-09T11:02:59.497Z,9556
2017-04-09T11:03:59.557Z,9588
2017-04-09T11:04:59.598Z,9588
2017-04-09T11:05:59.627Z,9420
2017-04-09T11:06:59.652Z,9136
2017-04-09T11:07:59.681Z,8956
2017-04-09T11:08:59.737Z,8820
2017-04-09T11:09:59.776Z,8732
2017-04-09T11:10:59.778Z,8656
2017-04-09T11:11:59.855Z,8660
2017-04-09T11:12:59.891Z,8488
2017-04-09T11:13:59.933Z,8280
2017-04-09T11:14:59.979Z,8120
2017-04-09T11:16:00.008Z,7956
2017-04-09T11:17:00.035Z,7916
2017-04-09T11:18:00.090Z,7916
2017-04-09T11:19:00.165Z,7772
2017-04-09T11:20:00.358Z,7656
2017-04-09T11:21:00.196Z,7624
2017-04-09T11:22:00.264Z,7700
2017-04-09T11:23:00.269Z,7664
2017-04-09T11:24:00.333Z,7480
2017-04-09T11:25:00.378Z,7340
2017-04-09T11:26:00.394Z,7268
2017-04-09T11:27:00.453Z,7244
2017-04-09T11:28:00.468Z,7244
2017-04-09T11:29:00.501Z,7212
2017-04-09T11:30:00.554Z,7144
2017-04-09T11:31:00.666Z,7032
2017-04-09T11:32:00.629Z,6880
2017-04-09T11:33:00.666Z,6816
2017-04-09T11:34:00.728Z,6736
2017-04-09T11:35:00.762Z,6640
2017-04-09T11:36:00.783Z,6640
2017-04-09T11:37:00.833Z,6636
2017-04-09T11:38:00.881Z,6548
2017-04-09T11:39:00.922Z,6448
2017-04-09T11:40:00.957Z,6396
2017-04-09T11:41:00.972Z,6400
2017-04-09T11:42:01.037Z,6356
2017-04-09T11:43:01.078Z,6268
2017-04-09T11:44:01.096Z,6160
2017-04-09T11:45:01.132Z,6096
2017-04-09T11:46:01.172Z,5992
2017-04-09T11:47:01.196Z,5944
2017-04-09T11:48:01.264Z,5868
2017-04-09T11:49:01.297Z,5696
2017-04-09T11:50:01.352Z,5572
2017-04-09T11:51:01.373Z,5508
2017-04-09T11:52:01.404Z,5456
2017-04-09T11:53:01.458Z,5396
2017-04-09T11:54:01.481Z,5312
2017-04-09T11:55:01.520Z,5240
2017-04-09T11:56:01.573Z,5200
2017-04-09T11:57:01.612Z,5152
2017-04-09T11:58:01.622Z,5112
2017-04-09T11:59:01.663Z,5072
2017-04-09T12:00:01.727Z,5028
2017-04-09T12:01:01.750Z,5004
2017-04-09T12:02:01.785Z,5000
2017-04-09T12:03:01.815Z,4996
2017-04-09T12:04:01.875Z,4976
2017-04-09T12:05:01.894Z,4952
2017-04-09T12:06:01.945Z,4904
2017-04-09T12:07:01.984Z,4848
2017-04-09T12:08:02.023Z,4800
2017-04-09T12:09:02.080Z,4748
2017-04-09T12:10:02.070Z,4676
2017-04-09T12:11:02.175Z,4612
2017-04-09T12:12:02.170Z,4552
2017-04-09T12:13:02.212Z,4488
2017-04-09T12:14:02.223Z,4440
2017-04-09T12:15:02.304Z,4408
2017-04-09T12:16:02.315Z,4356
2017-04-09T12:17:02.365Z,4332
2017-04-09T12:18:02.377Z,4328
2017-04-09T12:19:02.424Z,4304
2017-04-09T12:20:02.463Z,4288
2017-04-09T12:21:02.479Z,4264
2017-04-09T12:22:02.524Z,4224
2017-04-09T12:23:02.571Z,4200
2017-04-09T12:24:02.591Z,4176
2017-04-09T12:25:02.693Z,4164
2017-04-09T12:26:02.644Z,4132
2017-04-09T12:27:02.735Z,4108
2017-04-09T12:28:02.760Z,4080
2017-04-09T12:29:02.775Z,4048
2017-04-09T12:30:02.831Z,4024
2017-04-09T12:31:02.871Z,4004
2017-04-09T12:32:02.891Z,3984
2017-04-09T12:33:02.942Z,3968
2017-04-09T12:34:02.994Z,3968
2017-04-09T12:35:03.025Z,3968
2017-04-09T12:36:03.080Z,3932
2017-04-09T12:37:03.091Z,3888
2017-04-09T12:38:03.107Z,3836
2017-04-09T12:39:03.180Z,3796
2017-04-09T12:40:03.218Z,3764
2017-04-09T12:41:03.254Z,3736
2017-04-09T12:42:03.292Z,3700
2017-04-09T12:43:03.325Z,3660
2017-04-09T12:44:03.384Z,3624
2017-04-09T12:45:03.393Z,3592
2017-04-09T12:46:03.469Z,3572
2017-04-09T12:47:03.444Z,3552
2017-04-09T12:48:03.472Z,3536
2017-04-09T12:49:03.541Z,3520
2017-04-09T12:50:03.571Z,3504
2017-04-09T12:51:03.592Z,3480
2017-04-09T12:52:03.649Z,3460
2017-04-09T12:53:03.694Z,3424
2017-04-09T12:54:03.710Z,3432
2017-04-09T12:55:03.753Z,3424
2017-04-09T12:56:03.783Z,3392
2017-04-09T12:57:03.810Z,3356
2017-04-09T12:58:03.876Z,3340
2017-04-09T12:59:03.915Z,3308
2017-04-09T13:00:03.938Z,3292
2017-04-09T13:01:03.990Z,3284
2017-04-09T13:02:04.232Z,3284
2017-04-09T13:03:04.075Z,3284
2017-04-09T13:04:04.090Z,3264
2017-04-09T13:05:04.104Z,3236
2017-04-09T13:06:04.150Z,3204
2017-04-09T13:07:04.206Z,3176
2017-04-09T13:08:04.225Z,3164
2017-04-09T13:09:04.255Z,3148
2017-04-09T13:10:04.525Z,3128
2017-04-09T13:11:04.362Z,3100
2017-04-09T13:12:04.366Z,3076
2017-04-09T13:13:04.451Z,3048
2017-04-09T13:14:04.452Z,3028
2017-04-09T13:15:04.524Z,3008
2017-04-09T13:16:04.512Z,2988
2017-04-09T13:17:04.522Z,2976
2017-04-09T13:18:04.595Z,2960
2017-04-09T13:19:04.643Z,2944
2017-04-09T13:20:04.774Z,2932
2017-04-09T13:21:04.720Z,2916
2017-04-09T13:22:04.746Z,2896
2017-04-09T13:23:04.769Z,2880
2017-04-09T13:24:04.797Z,2844
2017-04-09T13:25:04.886Z,2820
2017-04-09T13:26:04.881Z,2796
2017-04-09T13:27:04.915Z,2772
2017-04-09T13:28:04.949Z,2756
2017-04-09T13:29:05.007Z,2748
2017-04-09T13:30:05.081Z,2732
2017-04-09T13:31:05.079Z,2704
2017-04-09T13:32:05.087Z,2680
2017-04-09T13:33:05.150Z,2660
2017-04-09T13:34:05.186Z,2640
2017-04-09T13:35:05.300Z,2632
2017-04-09T13:36:05.260Z,2620
2017-04-09T13:37:05.293Z,2616
2017-04-09T13:38:05.325Z,2612
2017-04-09T13:39:05.352Z,2604
2017-04-09T13:40:05.433Z,2596
2017-04-09T13:41:05.406Z,2588